Estación Meteorológica Peña el Pijo (Robertgarden) [ 11/20/18 01:30:49 CET ]

Fecha Hora Presion(HPa) Temp (°C) Humedad % Rocio (°C) Viento ( m/s) Direccion Lluvia 1Hora(mm) Lluvia 24H(mm) LLuvia Total(mm)
2018-Jan-19 01:01:51 1008.600 2.8 81 -0.1         62.16
2018-Jan-19 02:01:39 1008.100 2.0 82 -0.8         62.16
2018-Jan-19 03:03:12 1007.800 1.6 83 -1.0         62.16
2018-Jan-19 04:01:57 1007.600 1.4 83 -1.2         62.16
2018-Jan-19 05:01:38 1007.400 2.0 83 -0.6         62.16
2018-Jan-19 06:01:49 1007.000 1.5 83 -1.1         62.16
2018-Jan-19 07:02:00 1007.400 1.3 83 -1.3         62.16
2018-Jan-19 08:01:38 1008.100 1.0 83 -1.6         62.16
2018-Jan-19 09:01:43 1008.300 1.1 84 -1.4         62.16
2018-Jan-19 10:01:52 1009.000 3.0 83 0.4         62.16
2018-Jan-19 11:01:43 1009.500 5.4 79 2.0         62.16
2018-Jan-19 12:01:52 1009.200 7.3 72 2.6         62.16
2018-Jan-19 13:01:51 1008.400 10.8 63 4.0         62.16
2018-Jan-19 14:01:43 1008.200 12.1 53 2.8         62.16
2018-Jan-19 15:01:40 1008.200 13.9 48 3.1         62.16
2018-Jan-19 16:01:41 1008.100 15.2 45 3.3         62.16
2018-Jan-19 17:01:53 1008.600 12.9 47 1.8         62.16
2018-Jan-19 18:01:34 1009.000 10.4 54 1.5         62.16
2018-Jan-19 19:01:49 1009.900 6.7 63 0.2         62.16
2018-Jan-19 20:01:49 1011.000 6.1 67 0.4         62.16
2018-Jan-19 21:01:46 1011.400 3.9 72 -0.7         62.16
2018-Jan-19 22:01:37 1012.400 2.8 76 -1.0         62.16
2018-Jan-19 23:01:51 1012.600 1.4 78 -2.1         62.16

Temperatura Máxima:15°    Temperatura Mínima:
Presión Máxima:1012.600 Hpa    Presión Mínima:1007.000 Hpa


Volver